| DS18B20 | SHTC3 | ||||||
|---|---|---|---|---|---|---|---|
| ID | Date d/m/Y & Time | data1 สูง | data2 ต่ำ | data3 นอก | temp pcb | hum pcb | Time |
| 2459 | 14/03/2026 17:59:16 | 29.3  | 29.5  | 28.5  | 29.6  | 69.0  | 17:59 |
| 2458 | 14/03/2026 17:54:34 | 29.6  | 29.6  | 28.5  | 29.6  | 69.7  | 17:54 |
| 2457 | 14/03/2026 17:49:52 | 29.6  | 29.5  | 28.6  | 29.6  | 69.4  | 17:49 |
| 2456 | 14/03/2026 17:45:08 | 29.4  | 29.4  | 28.5  | 29.6  | 68.4  | 17:45 |
| 2455 | 14/03/2026 17:40:24 | 29.4  | 29.3  | 28.5  | 29.4  | 68.5  | 17:40 |
| 2454 | 14/03/2026 17:35:43 | 29.5  | 29.4  | 28.7  | 29.4  | 68.4  | 17:35 |
| 2453 | 14/03/2026 17:31:01 | 29.6  | 29.5  | 28.8  | 29.7  | 68.4  | 17:31 |
| 2452 | 14/03/2026 17:26:20 | 29.8  | 29.7  | 28.8  | 29.9  | 67.9  | 17:26 |
| 2451 | 14/03/2026 17:21:39 | 29.9  | 29.9  | 29.0  | 30.1  | 67.5  | 17:21 |
| 2450 | 14/03/2026 17:16:58 | 30.2  | 30.1  | 29.0  | 30.2  | 67.6  | 17:16 |
| 2449 | 14/03/2026 17:12:16 | 30.4  | 30.4  | 28.9  | 30.4  | 68.7  | 17:12 |
| 2448 | 14/03/2026 17:07:34 | 30.4  | 30.4  | 28.9  | 30.5  | 68.8  | 17:07 |
| 2447 | 14/03/2026 17:02:53 | 30.4  | 30.4  | 29.2  | 30.5  | 68.8  | 17:02 |
| 2446 | 14/03/2026 16:58:11 | 30.5  | 30.4  | 29.2  | 30.6  | 68.5  | 16:58 |
| 2445 | 14/03/2026 16:53:29 | 30.5  | 30.4  | 29.0  | 30.5  | 68.4  | 16:53 |
| 2444 | 14/03/2026 16:48:47 | 30.6  | 30.4  | 29.2  | 30.5  | 68.4  | 16:48 |
| 2443 | 14/03/2026 16:44:04 | 30.6  | 30.5  | 29.4  | 30.5  | 68.5  | 16:44 |
| 2442 | 14/03/2026 16:39:22 | 30.6  | 30.5  | 29.5  | 30.5  | 68.4  | 16:39 |
| 2441 | 14/03/2026 16:34:40 | 30.6  | 30.6  | 29.5  | 30.6  | 68.2  | 16:34 |
| 2440 | 14/03/2026 16:29:59 | 30.6  | 30.6  | 29.5  | 30.7  | 68.4  | 16:29 |
| 2439 | 14/03/2026 16:25:17 | 30.7  | 30.6  | 29.5  | 30.7  | 68.4  | 16:25 |
| 2438 | 14/03/2026 16:20:36 | 30.7  | 30.6  | 29.5  | 30.7  | 68.3  | 16:20 |
| 2437 | 14/03/2026 16:15:54 | 30.8  | 30.6  | 29.7  | 30.7  | 68.3  | 16:15 |
| 2436 | 14/03/2026 16:11:12 | 30.8  | 30.6  | 29.9  | 30.7  | 68.3  | 16:11 |